This is the latest recevied weather packets stored in our database for station/object N0MR. If no packets are shown the sender has not sent any weather packets the latest 10 day(s).
| Time | Temp. | Humidity | Pressure | Rain* | Wind** | Luminosity | Snow |
|---|---|---|---|---|---|---|---|
| 1788320207 | 16.11° C | 83% | 1011.6 hPa | 0 mm | - | - | - |
| 1788319606 | 16.67° C | 82% | 1011.6 hPa | 0 mm | - | - | - |
| 1788319006 | 16.67° C | 82% | 1011.6 hPa | 0 mm | - | - | - |
| 1788318409 | 17.22° C | 80% | 1011.6 hPa | 0 mm | - | - | - |
| 1788317806 | 17.22° C | 80% | 1011.6 hPa | 0 mm | - | - | - |
| 1788317207 | 17.22° C | 79% | 1011.4 hPa | 0 mm | - | - | - |
| 1788316606 | 17.78° C | 79% | 1011.4 hPa | 0 mm | - | - | - |
| 1788316006 | 17.78° C | 79% | 1011.4 hPa | 0 mm | - | - | - |
| 1788315409 | 17.78° C | 78% | 1011.2 hPa | 0 mm | - | - | - |
| 1788314806 | 17.78° C | 78% | 1011.2 hPa | 0 mm | - | - | - |
| 1788314210 | 17.78° C | 79% | 1011.1 hPa | 0 mm | - | - | - |
| 1788313606 | 17.78° C | 79% | 1011.1 hPa | 0 mm | - | - | - |
| 1788313008 | 18.33° C | 78% | 1010.9 hPa | 0 mm | - | - | - |
| 1788312407 | 18.33° C | 78% | 1010.9 hPa | 0 mm | - | - | - |
| 1788310607 | 20.56° C | 71% | 1010.6 hPa | 0 mm | - | - | - |
| 1788310007 | 20.56° C | 71% | 1010.6 hPa | 0 mm | - | - | - |
| 1788309409 | 21.67° C | 65% | 1010.4 hPa | 0 mm | - | - | - |
| 1788308806 | 21.67° C | 65% | 1010.4 hPa | 0 mm | - | - | - |
| 1788308207 | 22.22° C | 62% | 1010.5 hPa | 0 mm | - | - | - |
| 1788307627 | 22.22° C | 62% | 1010.5 hPa | 0 mm | - | - | - |
| 1788307008 | 22.78° C | 58% | 1010.4 hPa | 0 mm | - | - | - |
| 1788306407 | 22.78° C | 58% | 1010.4 hPa | 0 mm | - | - | - |
| 1788305808 | 23.33° C | 56% | 1010.4 hPa | 0 mm | - | - | - |
| 1788305207 | 23.89° C | 55% | 1010.2 hPa | 0 mm | - | - | - |
| 1788302808 | 24.44° C | 52% | 1010.2 hPa | 0 mm | - | - | - |
* Rain latest hour (hover to see other rain measurements)
** Current wind speed in m/s (hover to see current wind gust speed)